Time;durP1;ratioP1;P1;durP2;ratioP2;P2;SDS_P1;SDS_P2;PMS_P1;PMS_P2;Temp;Humidity;BMP_temperature;BMP_pressure;BME280_temperature;BME280_humidity;BME280_pressure;Samples;Min_cycle;Max_cycle;Signal;HPM_P1;HPM_P2
2021/12/16 00:08:19;;;;;;;;;;;;;;;18.18;50.97;103292.22;5033440;28;19924;-51
2021/12/16 00:11:17;;;;;;;;;;;;;;;18.06;50.68;103267.03;5024980;28;19931;-49
2021/12/16 00:30:10;;;;;;;;;;;;;;;18.10;50.85;103287.41;5044381;28;20496;-49
2021/12/16 00:32:46;;;;;;;;;;;;;;;18.10;50.71;103298.16;5044193;28;20047;-47
2021/12/16 00:35:11;;;;;;;;;;;;;;;18.09;50.86;103295.56;5044594;28;19921;-50
2021/12/16 00:37:36;;;;;;;;;;;;;;;18.09;50.73;103295.56;5044027;28;19976;-48
2021/12/16 00:40:03;;;;;;;;;;;;;;;18.08;50.62;103291.16;5044185;28;19913;-49
2021/12/16 00:45:34;;;;;;;;;;;;;;;18.06;50.92;103296.66;5044063;28;19955;-50
2021/12/16 00:48:07;;;;;;;;;;;;;;;18.05;50.67;103294.03;5044326;28;20585;-50
2021/12/16 00:55:48;;;;;;;;;;;;;;;18.04;50.82;103287.81;5043663;28;19923;-47
2021/12/16 00:58:16;;;;;;;;;;;;;;;18.03;50.75;103296.00;5044166;28;19944;-51
2021/12/16 01:00:49;;;;;;;;;;;;;;;18.03;50.84;103301.38;5042899;28;19917;-51
2021/12/16 01:03:24;;;;;;;;;;;;;;;18.03;50.82;103301.38;5044110;28;20388;-48
2021/12/16 01:06:07;;;;;;;;;;;;;;;18.02;50.73;103303.22;5043656;28;19979;-47
2021/12/16 01:36:34;;;;;;;;;;;;;;;17.97;50.79;103326.91;5001685;28;19922;-47
2021/12/16 01:39:47;;;;;;;;;;;;;;;17.95;50.77;103326.13;5001107;28;19928;-51
2021/12/16 01:42:26;;;;;;;;;;;;;;;17.94;50.80;103330.63;5000911;28;19913;-48
2021/12/16 01:45:38;;;;;;;;;;;;;;;17.95;50.71;103331.50;5000921;28;19917;-49
2021/12/16 01:50:37;;;;;;;;;;;;;;;17.93;50.62;103337.00;5000732;28;19920;-46
2021/12/16 01:53:19;;;;;;;;;;;;;;;17.93;50.71;103336.13;5001106;28;19921;-49
2021/12/16 01:55:51;;;;;;;;;;;;;;;17.92;50.77;103337.09;5000454;28;19924;-49
2021/12/16 01:58:20;;;;;;;;;;;;;;;17.91;50.62;103344.28;5001013;28;19937;-50
2021/12/16 02:01:08;;;;;;;;;;;;;;;17.91;50.78;103344.28;4999798;28;19917;-48
2021/12/16 02:03:42;;;;;;;;;;;;;;;17.91;50.69;103351.50;5000852;28;20067;-50
2021/12/16 02:06:37;;;;;;;;;;;;;;;17.90;50.71;103350.66;5005402;28;19922;-50
2021/12/16 02:09:00;;;;;;;;;;;;;;;17.89;50.72;103353.47;5042620;28;19913;-52
2021/12/16 02:11:46;;;;;;;;;;;;;;;17.89;50.74;103348.06;5042771;28;19920;-50
2021/12/16 02:33:32;;;;;;;;;;;;;;;17.82;50.48;103344.91;5049612;28;19944;-51
2021/12/16 02:36:13;;;;;;;;;;;;;;;17.82;50.48;103346.75;5042667;28;19917;-49
2021/12/16 02:38:38;;;;;;;;;;;;;;;17.82;50.68;103344.06;5042861;28;19914;-52
2021/12/16 02:41:03;;;;;;;;;;;;;;;17.82;50.71;103353.00;5042380;28;19917;-50
2021/12/16 02:43:55;;;;;;;;;;;;;;;17.80;50.68;103354.94;5042585;28;19914;-47
2021/12/16 02:48:58;;;;;;;;;;;;;;;17.80;50.68;103348.66;5042464;28;19935;-52
2021/12/16 02:51:24;;;;;;;;;;;;;;;17.79;50.76;103350.50;5042520;28;19918;-49
2021/12/16 02:54:07;;;;;;;;;;;;;;;17.79;50.63;103352.31;5042401;28;19913;-51
2021/12/16 02:56:32;;;;;;;;;;;;;;;17.78;50.72;103361.38;5041963;28;19917;-48
2021/12/16 02:58:58;;;;;;;;;;;;;;;17.76;50.56;103361.47;5042273;28;19976;-46
2021/12/16 03:01:29;;;;;;;;;;;;;;;17.75;50.75;103359.72;5043618;28;19977;-52
2021/12/16 03:03:55;;;;;;;;;;;;;;;17.76;50.53;103355.25;5045827;28;19920;-50
2021/12/16 03:06:20;;;;;;;;;;;;;;;17.74;50.67;103356.19;5046216;28;19913;-47
2021/12/16 03:08:46;;;;;;;;;;;;;;;17.74;50.58;103358.88;5046127;28;20496;-46
2021/12/16 03:14:00;;;;;;;;;;;;;;;17.72;50.66;103359.94;5052968;28;20545;-51
2021/12/16 03:16:37;;;;;;;;;;;;;;;17.72;50.60;103360.78;5044539;28;19944;-50
2021/12/16 03:19:12;;;;;;;;;;;;;;;17.71;50.66;103352.78;5046008;28;19924;-51
2021/12/16 03:21:43;;;;;;;;;;;;;;;17.69;50.55;103355.59;5045988;28;19913;-51
2021/12/16 03:24:38;;;;;;;;;;;;;;;17.69;50.71;103360.97;5046147;28;19966;-50
2021/12/16 03:32:50;;;;;;;;;;;;;;;17.67;50.56;103372.78;5052127;28;19924;-47
2021/12/16 03:35:39;;;;;;;;;;;;;;;17.67;50.53;103370.09;5045429;28;19940;-46
2021/12/16 03:38:06;;;;;;;;;;;;;;;17.67;50.67;103370.09;5045908;28;19917;-50
2021/12/16 03:40:31;;;;;;;;;;;;;;;17.66;50.65;103371.06;5045114;28;19989;-50
2021/12/16 03:42:58;;;;;;;;;;;;;;;17.66;50.60;103363.00;5045646;28;19924;-49
2021/12/16 03:48:36;;;;;;;;;;;;;;;17.64;50.68;103379.25;5045275;28;19924;-48
2021/12/16 03:51:04;;;;;;;;;;;;;;;17.63;50.43;103376.69;5027950;28;19920;-46
2021/12/16 03:53:29;;;;;;;;;;;;;;;17.61;50.35;103379.44;5025589;28;19914;-47
2021/12/16 03:55:54;;;;;;;;;;;;;;;17.61;50.50;103383.97;5024942;28;19918;-49
2021/12/16 03:58:19;;;;;;;;;;;;;;;17.60;50.49;103385.78;5025423;28;19936;-49
2021/12/16 04:00:46;;;;;;;;;;;;;;;17.60;50.69;103385.78;5024173;28;19914;-48
2021/12/16 04:03:12;;;;;;;;;;;;;;;17.60;50.48;103384.94;5026917;28;19925;-47
2021/12/16 04:05:37;;;;;;;;;;;;;;;17.58;50.57;103384.16;5044915;28;19913;-49
2021/12/16 04:08:02;;;;;;;;;;;;;;;17.58;50.46;103379.63;5045177;28;19913;-50
2021/12/16 04:10:37;;;;;;;;;;;;;;;17.57;50.64;103374.38;5044550;28;19921;-50
2021/12/16 04:13:04;;;;;;;;;;;;;;;17.58;50.48;103373.41;5045207;28;19913;-47
2021/12/16 04:15:30;;;;;;;;;;;;;;;17.56;50.65;103383.41;5044152;28;20470;-49
2021/12/16 04:17:55;;;;;;;;;;;;;;;17.56;50.53;103383.41;5044456;28;20409;-49
2021/12/16 04:20:20;;;;;;;;;;;;;;;17.54;50.51;103383.50;5044888;28;19924;-51
2021/12/16 04:22:46;;;;;;;;;;;;;;;17.53;50.63;103376.38;5044798;28;19956;-48
2021/12/16 04:25:14;;;;;;;;;;;;;;;17.53;50.49;103378.22;5044665;28;19917;-51
2021/12/16 04:27:41;;;;;;;;;;;;;;;17.52;50.67;103382.75;5044597;28;19913;-51
2021/12/16 04:30:07;;;;;;;;;;;;;;;17.52;50.66;103387.25;5044357;28;19920;-51
2021/12/16 04:32:32;;;;;;;;;;;;;;;17.52;50.64;103389.94;5044331;28;19913;-50
2021/12/16 04:34:57;;;;;;;;;;;;;;;17.52;50.42;103389.94;5044546;28;19921;-51
2021/12/16 04:37:22;;;;;;;;;;;;;;;17.50;50.58;103390.06;5044520;28;19913;-49
2021/12/16 04:39:47;;;;;;;;;;;;;;;17.51;50.48;103396.31;5044341;28;20293;-49
2021/12/16 04:42:13;;;;;;;;;;;;;;;17.51;50.63;103399.84;5059672;28;20171;-47
2021/12/16 04:44:39;;;;;;;;;;;;;;;17.49;50.62;103405.31;5043961;28;19917;-48
2021/12/16 04:47:04;;;;;;;;;;;;;;;17.49;50.37;103393.69;5043742;28;19920;-51
2021/12/16 04:49:30;;;;;;;;;;;;;;;17.48;50.41;103390.13;5044219;28;19917;-48
2021/12/16 04:51:57;;;;;;;;;;;;;;;17.48;50.54;103395.50;5044325;28;19913;-49
2021/12/16 04:54:24;;;;;;;;;;;;;;;17.47;50.45;103399.19;5044232;28;19944;-52
2021/12/16 04:56:49;;;;;;;;;;;;;;;17.47;50.58;103396.50;5043060;28;19917;-49
2021/12/16 04:59:15;;;;;;;;;;;;;;;17.48;50.54;103405.41;5043337;28;19920;-48
2021/12/16 05:01:42;;;;;;;;;;;;;;;17.46;50.38;103405.53;5043033;28;20333;-49
2021/12/16 05:04:07;;;;;;;;;;;;;;;17.46;50.33;103404.66;5043514;28;19921;-49
2021/12/16 05:06:33;;;;;;;;;;;;;;;17.46;50.46;103410.03;5040648;28;20008;-53
2021/12/16 05:08:58;;;;;;;;;;;;;;;17.45;50.52;103409.16;5043216;28;19943;-51
2021/12/16 05:11:24;;;;;;;;;;;;;;;17.45;50.41;103402.91;5043420;28;19917;-51
2021/12/16 05:13:49;;;;;;;;;;;;;;;17.45;50.58;103417.22;5043140;28;19989;-47
2021/12/16 05:16:14;;;;;;;;;;;;;;;17.46;50.47;103412.72;5041764;28;19921;-50
2021/12/16 05:18:41;;;;;;;;;;;;;;;17.46;50.40;103412.72;5042560;28;21360;-51
2021/12/16 05:21:09;;;;;;;;;;;;;;;17.46;50.57;103418.13;5043369;28;20476;-52
2021/12/16 05:26:21;;;;;;;;;;;;;;;17.46;50.50;103447.69;5040374;28;20320;-51
2021/12/16 05:28:54;;;;;;;;;;;;;;;17.46;50.45;103448.56;5040100;28;19976;-48
2021/12/16 05:31:21;;;;;;;;;;;;;;;17.45;50.52;103438.75;5039716;28;20400;-50
2021/12/16 05:33:47;;;;;;;;;;;;;;;17.45;50.44;103449.50;5043305;28;19913;-50
2021/12/16 05:36:12;;;;;;;;;;;;;;;17.45;50.63;103446.81;5058976;28;19917;-50
2021/12/16 05:38:37;;;;;;;;;;;;;;;17.46;50.57;103426.19;5043467;28;19913;-51
2021/12/16 05:41:04;;;;;;;;;;;;;;;17.46;50.53;103428.88;5043103;28;19928;-49
2021/12/16 05:43:30;;;;;;;;;;;;;;;17.47;50.42;103438.66;5042798;28;19917;-49
2021/12/16 05:45:55;;;;;;;;;;;;;;;17.46;50.72;103436.94;5042083;28;19921;-50
2021/12/16 05:48:22;;;;;;;;;;;;;;;17.46;50.67;103435.13;5043400;28;19976;-52
2021/12/16 05:50:48;;;;;;;;;;;;;;;17.46;50.80;103445.88;5042992;28;19967;-53
2021/12/16 05:53:14;;;;;;;;;;;;;;;17.47;50.76;103452.09;5043175;28;19948;-51
2021/12/16 05:55:39;;;;;;;;;;;;;;;17.47;50.76;103458.34;5042537;28;19917;-52
2021/12/16 05:58:06;;;;;;;;;;;;;;;17.47;50.78;103444.03;5043343;28;19936;-49
2021/12/16 06:00:33;;;;;;;;;;;;;;;17.46;50.72;103445.88;5042673;28;20344;-48
2021/12/16 06:02:58;;;;;;;;;;;;;;;17.46;50.83;103447.69;5042790;28;19913;-50
2021/12/16 06:05:24;;;;;;;;;;;;;;;17.47;50.74;103455.66;5043079;28;19963;-51
2021/12/16 06:07:49;;;;;;;;;;;;;;;17.47;50.92;103457.50;5042999;28;19956;-50
2021/12/16 06:12:52;;;;;;;;;;;;;;;17.47;50.85;103465.56;5049138;28;19914;-52
2021/12/16 06:15:36;;;;;;;;;;;;;;;17.46;50.96;103467.38;5041877;28;19927;-49
2021/12/16 06:27:16;;;;;;;;;;;;;;;17.48;50.98;103480.72;5041914;28;20265;-50
2021/12/16 06:29:08;;;;;;;;;;;;;;;17.49;51.04;103487.81;5029089;28;19920;-49
2021/12/16 06:31:34;;;;;;;;;;;;;;;17.49;50.89;103485.13;5041362;28;20325;-51
2021/12/16 06:33:59;;;;;;;;;;;;;;;17.49;51.05;103491.38;5040213;28;19918;-52
2021/12/16 06:36:24;;;;;;;;;;;;;;;17.49;51.07;103486.00;5046395;28;19918;-51
2021/12/16 06:38:49;;;;;;;;;;;;;;;17.48;51.16;103486.97;5061269;28;19913;-50
2021/12/16 06:41:18;;;;;;;;;;;;;;;17.48;50.88;103492.34;5046077;28;20380;-49
2021/12/16 06:43:45;;;;;;;;;;;;;;;17.48;50.89;103492.34;5045833;28;19920;-51
2021/12/16 06:46:14;;;;;;;;;;;;;;;17.49;51.07;103495.91;5045194;28;20469;-50
2021/12/16 06:48:42;;;;;;;;;;;;;;;17.50;51.22;103505.72;5046251;28;19913;-52
2021/12/16 06:51:12;;;;;;;;;;;;;;;17.48;51.00;103505.78;5045912;28;20320;-47
2021/12/16 06:53:52;;;;;;;;;;;;;;;17.49;51.07;103509.34;5043916;28;20258;-51
2021/12/16 06:56:30;;;;;;;;;;;;;;;17.49;51.16;103512.91;5045526;28;19917;-51
2021/12/16 06:59:09;;;;;;;;;;;;;;;17.49;51.04;103518.28;5045760;28;19920;-50
2021/12/16 07:01:40;;;;;;;;;;;;;;;17.50;50.99;103516.47;5042547;28;19981;-51
2021/12/16 07:04:06;;;;;;;;;;;;;;;17.49;50.94;103520.97;5045997;28;19913;-49
2021/12/16 07:06:32;;;;;;;;;;;;;;;17.51;51.14;103517.34;5046323;28;19913;-53
2021/12/16 07:09:00;;;;;;;;;;;;;;;17.48;51.07;103524.63;5046002;28;19936;-50
2021/12/16 07:11:25;;;;;;;;;;;;;;;17.50;51.18;103527.25;5046065;28;19980;-50
2021/12/16 07:13:59;;;;;;;;;;;;;;;17.49;51.22;103522.78;5046036;28;19928;-52
2021/12/16 07:16:25;;;;;;;;;;;;;;;17.49;51.17;103522.78;5044795;28;19932;-52
2021/12/16 07:18:50;;;;;;;;;;;;;;;17.48;51.17;103538.06;5045934;28;19988;-51
2021/12/16 07:21:15;;;;;;;;;;;;;;;17.47;51.19;103555.19;5045539;28;19948;-47
2021/12/16 07:23:40;;;;;;;;;;;;;;;17.47;51.09;103557.00;5044800;28;19924;-49
2021/12/16 07:26:06;;;;;;;;;;;;;;;17.47;51.19;103555.19;5045403;28;19917;-49
2021/12/16 07:28:31;;;;;;;;;;;;;;;17.46;51.06;103561.53;5045207;28;19913;-49
2021/12/16 07:30:57;;;;;;;;;;;;;;;17.47;51.30;103568.63;5043629;28;20002;-50
2021/12/16 07:33:22;;;;;;;;;;;;;;;17.49;51.24;103571.22;5045183;28;19943;-50
2021/12/16 07:35:48;;;;;;;;;;;;;;;17.51;51.03;103571.13;5045053;28;20509;-49
2021/12/16 07:38:13;;;;;;;;;;;;;;;17.53;51.03;103569.19;5044670;28;19914;-47
2021/12/16 07:40:41;;;;;;;;;;;;;;;17.54;51.22;103571.78;5044660;28;19917;-47
2021/12/16 07:45:33;;;;;;;;;;;;;;;17.57;50.89;103578.81;5044054;28;19917;-52
2021/12/16 07:47:59;;;;;;;;;;;;;;;17.57;50.85;103585.06;5044841;28;19917;-51
2021/12/16 07:50:24;;;;;;;;;;;;;;;17.58;50.93;103594.00;5044383;28;19917;-49
2021/12/16 07:52:50;;;;;;;;;;;;;;;17.59;50.79;103583.16;5044453;28;19992;-49
2021/12/16 07:55:16;;;;;;;;;;;;;;;17.59;50.78;103588.53;5044379;28;19922;-48
2021/12/16 07:57:41;;;;;;;;;;;;;;;17.61;50.75;103596.50;5044489;28;19920;-51
2021/12/16 08:00:08;;;;;;;;;;;;;;;17.61;50.87;103588.44;5044051;28;19923;-47
2021/12/16 08:02:34;;;;;;;;;;;;;;;17.61;50.89;103600.03;5044108;28;19985;-51
2021/12/16 08:04:59;;;;;;;;;;;;;;;17.61;50.68;103594.66;5045102;28;19913;-45
2021/12/16 08:07:24;;;;;;;;;;;;;;;17.62;50.71;103585.63;5044250;28;19948;-45
2021/12/16 08:09:50;;;;;;;;;;;;;;;17.63;50.96;103603.53;5044670;28;19936;-49
2021/12/16 08:12:15;;;;;;;;;;;;;;;17.64;50.87;103609.78;5044839;28;19920;-45
2021/12/16 08:14:41;;;;;;;;;;;;;;;17.65;50.58;103603.41;5044634;28;19963;-46
2021/12/16 08:17:07;;;;;;;;;;;;;;;17.64;50.70;103607.94;5044057;28;19960;-45
2021/12/16 08:19:32;;;;;;;;;;;;;;;17.64;50.72;103613.31;5059969;28;19917;-46
2021/12/16 08:21:57;;;;;;;;;;;;;;;17.64;50.73;103609.78;5040534;28;19913;-49
2021/12/16 08:24:22;;;;;;;;;;;;;;;17.64;50.48;103609.78;5025056;28;19956;-46
2021/12/16 08:26:48;;;;;;;;;;;;;;;17.63;50.69;103616.97;5024365;28;20004;-51
2021/12/16 08:29:14;;;;;;;;;;;;;;;17.63;50.72;103614.28;5025113;28;20008;-45
2021/12/16 08:31:39;;;;;;;;;;;;;;;17.63;50.45;103614.28;5058433;28;20393;-47
2021/12/16 08:34:05;;;;;;;;;;;;;;;17.65;50.68;103622.25;5045106;28;20521;-47
2021/12/16 08:36:30;;;;;;;;;;;;;;;17.65;50.53;103628.50;5044679;28;19978;-49
2021/12/16 08:38:56;;;;;;;;;;;;;;;17.45;50.34;103591.19;5044416;28;20496;-47
2021/12/16 08:41:23;;;;;;;;;;;;;;;17.66;50.57;103629.34;5044330;28;19913;-50
2021/12/16 08:43:49;;;;;;;;;;;;;;;17.65;50.50;103628.50;5044524;28;19975;-45
2021/12/16 08:46:15;;;;;;;;;;;;;;;17.66;50.46;103627.53;5043596;28;19974;-49
2021/12/16 08:48:40;;;;;;;;;;;;;;;17.67;50.23;103636.47;5044513;28;19953;-46
2021/12/16 08:51:06;;;;;;;;;;;;;;;17.67;50.41;103634.66;5044196;28;19913;-50
2021/12/16 08:53:31;;;;;;;;;;;;;;;17.67;50.31;103634.66;5044406;28;19952;-48
2021/12/16 08:55:56;;;;;;;;;;;;;;;17.69;50.23;103648.88;5043773;28;19917;-47
2021/12/16 08:58:22;;;;;;;;;;;;;;;17.70;50.36;103647.91;5044398;28;19976;-46
2021/12/16 09:00:50;;;;;;;;;;;;;;;17.70;50.07;103647.03;5042783;28;19939;-47
2021/12/16 09:03:15;;;;;;;;;;;;;;;17.70;50.31;103653.28;5043081;28;19920;-46
2021/12/16 09:05:41;;;;;;;;;;;;;;;17.70;50.25;103655.97;5043962;28;19913;-49
2021/12/16 09:08:06;;;;;;;;;;;;;;;17.72;49.97;103664.84;5059201;28;19924;-45
2021/12/16 09:10:32;;;;;;;;;;;;;;;17.72;50.02;103663.97;5043612;28;19917;-49
2021/12/16 09:13:04;;;;;;;;;;;;;;;17.75;50.11;103669.19;5043933;28;20684;-47
2021/12/16 09:15:38;;;;;;;;;;;;;;;17.74;50.12;103673.69;5043113;28;19960;-45
2021/12/16 09:18:03;;;;;;;;;;;;;;;17.75;50.02;103671.88;5044084;28;20006;-46
2021/12/16 09:20:29;;;;;;;;;;;;;;;17.76;49.84;103676.31;5043608;28;19937;-49
2021/12/16 09:22:54;;;;;;;;;;;;;;;17.78;50.00;103668.16;5043786;28;20658;-47
2021/12/16 09:25:19;;;;;;;;;;;;;;;17.78;49.80;103677.06;5031581;28;19920;-46
2021/12/16 09:27:44;;;;;;;;;;;;;;;17.80;49.76;103676.97;5023774;28;19920;-45
2021/12/16 09:30:10;;;;;;;;;;;;;;;17.80;49.84;103675.19;5032016;28;19940;-45
2021/12/16 09:32:36;;;;;;;;;;;;;;;17.81;49.88;103676.91;5043168;28;19913;-45
2021/12/16 09:35:01;;;;;;;;;;;;;;;17.84;49.87;103679.41;5043572;28;20270;-46
2021/12/16 09:37:28;;;;;;;;;;;;;;;17.86;49.73;103685.56;5043521;28;19993;-44
2021/12/16 09:39:53;;;;;;;;;;;;;;;17.88;49.64;103678.25;5043418;28;19917;-44
2021/12/16 09:42:18;;;;;;;;;;;;;;;17.90;49.44;103683.53;5043295;28;19913;-47
2021/12/16 09:44:43;;;;;;;;;;;;;;;17.92;49.44;103681.59;5043334;28;20650;-49
2021/12/16 09:47:11;;;;;;;;;;;;;;;17.92;49.58;103687.84;5042714;28;19924;-46
2021/12/16 09:49:36;;;;;;;;;;;;;;;17.94;49.42;103688.63;5025276;28;19914;-49
2021/12/16 09:52:01;;;;;;;;;;;;;;;17.95;49.48;103687.66;5041845;28;19969;-45
2021/12/16 09:54:28;;;;;;;;;;;;;;;17.96;49.31;103681.31;5043399;28;19913;-49
2021/12/16 09:56:54;;;;;;;;;;;;;;;17.99;49.31;103682.97;5057807;28;19917;-45
2021/12/16 09:59:20;;;;;;;;;;;;;;;17.98;49.07;103679.41;5042854;28;19923;-50
2021/12/16 10:01:47;;;;;;;;;;;;;;;18.01;49.17;103683.75;5041008;28;19917;-46
2021/12/16 10:04:13;;;;;;;;;;;;;;;18.00;48.98;103684.69;5043334;28;19936;-47
2021/12/16 10:06:39;;;;;;;;;;;;;;;18.02;49.09;103674.72;5042936;28;19913;-48
2021/12/16 10:09:05;;;;;;;;;;;;;;;18.03;49.16;103673.75;5042385;28;19928;-47
2021/12/16 10:11:31;;;;;;;;;;;;;;;18.03;49.27;103660.28;5042816;28;19917;-48
2021/12/16 10:19:08;;;;;;;;;;;;;;;18.07;48.98;103666.34;5042881;28;19921;-49
2021/12/16 10:21:33;;;;;;;;;;;;;;;18.08;48.92;103674.31;5042709;28;19921;-51
2021/12/16 10:23:59;;;;;;;;;;;;;;;18.10;48.86;103676.94;5040266;28;19914;-47
2021/12/16 10:26:25;;;;;;;;;;;;;;;18.10;49.03;103677.78;5022568;28;19917;-47
2021/12/16 10:28:52;;;;;;;;;;;;;;;18.11;48.98;103678.66;5023077;28;19921;-50
2021/12/16 10:31:24;;;;;;;;;;;;;;;18.12;48.87;103670.47;5041645;28;19924;-48
2021/12/16 10:34:00;;;;;;;;;;;;;;;18.14;48.82;103670.41;5042808;28;19913;-47
2021/12/16 10:36:32;;;;;;;;;;;;;;;18.14;48.75;103665.88;5042604;28;19944;-48
2021/12/16 10:39:11;;;;;;;;;;;;;;;18.15;48.75;103669.41;5042584;28;19917;-47
2021/12/16 10:41:37;;;;;;;;;;;;;;;18.15;48.68;103675.66;5042542;28;19921;-48
2021/12/16 10:44:04;;;;;;;;;;;;;;;18.16;48.93;103673.84;5042779;28;19914;-48
2021/12/16 10:46:30;;;;;;;;;;;;;;;18.17;48.74;103678.25;5041969;28;19913;-48
2021/12/16 10:48:57;;;;;;;;;;;;;;;18.18;48.71;103679.97;5042442;28;19963;-49
2021/12/16 10:51:27;;;;;;;;;;;;;;;18.18;48.92;103682.66;5042703;28;19913;-47
2021/12/16 10:53:53;;;;;;;;;;;;;;;18.17;48.66;103687.19;5042692;28;19913;-47
2021/12/16 10:56:19;;;;;;;;;;;;;;;18.19;48.84;103692.50;5042135;28;19917;-48
2021/12/16 10:58:53;;;;;;;;;;;;;;;18.18;48.71;103691.66;5042487;28;19921;-47
2021/12/16 11:01:34;;;;;;;;;;;;;;;18.20;48.68;103696.91;5041690;28;19921;-46
2021/12/16 11:03:59;;;;;;;;;;;;;;;18.19;48.84;103692.50;5042599;28;19913;-46
2021/12/16 11:06:36;;;;;;;;;;;;;;;18.20;48.63;103688.84;5042632;28;20024;-51
2021/12/16 11:09:19;;;;;;;;;;;;;;;18.21;48.64;103699.50;5042494;28;19920;-47
2021/12/16 11:11:45;;;;;;;;;;;;;;;18.23;48.78;103699.44;5042297;28;19960;-48
2021/12/16 11:14:10;;;;;;;;;;;;;;;18.24;48.77;103693.06;5042418;28;19924;-50
2021/12/16 11:16:35;;;;;;;;;;;;;;;18.26;48.75;103695.66;5041518;28;19917;-48
2021/12/16 11:19:01;;;;;;;;;;;;;;;18.26;48.69;103696.53;5042365;28;19917;-45
2021/12/16 11:21:39;;;;;;;;;;;;;;;18.26;48.63;103699.22;5043653;28;19913;-48
2021/12/16 11:24:19;;;;;;;;;;;;;;;18.28;48.52;103693.75;5052700;28;20352;-49
2021/12/16 11:26:46;;;;;;;;;;;;;;;18.29;48.59;103696.34;5045648;28;19944;-47
2021/12/16 11:29:11;;;;;;;;;;;;;;;18.30;48.47;103697.19;5060817;28;19928;-49
2021/12/16 11:31:37;;;;;;;;;;;;;;;18.31;48.55;103704.31;5044940;28;19921;-48
2021/12/16 11:34:03;;;;;;;;;;;;;;;18.32;48.60;103695.28;5045941;28;19961;-46
2021/12/16 11:36:33;;;;;;;;;;;;;;;18.33;48.47;103695.19;5045789;28;20011;-48
2021/12/16 11:39:02;;;;;;;;;;;;;;;18.33;48.59;103691.63;5045434;28;19913;-47
2021/12/16 11:41:32;;;;;;;;;;;;;;;18.34;48.39;103704.13;5045709;28;19975;-47
2021/12/16 11:43:57;;;;;;;;;;;;;;;18.34;48.43;103699.59;5045807;28;19917;-48
2021/12/16 11:46:27;;;;;;;;;;;;;;;18.35;48.65;103705.84;5044887;28;20288;-46
2021/12/16 11:48:53;;;;;;;;;;;;;;;18.34;48.46;103704.97;5045331;28;19956;-46
2021/12/16 11:51:21;;;;;;;;;;;;;;;18.36;48.38;103708.47;5045614;28;19913;-46
2021/12/16 11:53:48;;;;;;;;;;;;;;;18.35;48.56;103698.66;5045561;28;19913;-47
2021/12/16 11:56:14;;;;;;;;;;;;;;;18.36;48.47;103696.81;5044995;28;19924;-49
2021/12/16 11:58:41;;;;;;;;;;;;;;;18.35;48.39;103706.75;5045410;28;19913;-46
2021/12/16 12:01:14;;;;;;;;;;;;;;;18.35;48.62;103704.03;5044448;28;19917;-49
2021/12/16 12:03:39;;;;;;;;;;;;;;;18.36;48.24;103713.00;5045287;28;19913;-47
2021/12/16 12:06:04;;;;;;;;;;;;;;;18.21;48.43;103686.03;5045312;28;19939;-45
2021/12/16 12:08:31;;;;;;;;;;;;;;;18.38;48.40;103711.91;5045200;28;19944;-48
2021/12/16 12:11:01;;;;;;;;;;;;;;;18.40;48.36;103712.69;5044731;28;19917;-45
2021/12/16 12:13:28;;;;;;;;;;;;;;;18.42;48.33;103721.53;5045269;28;19913;-49
2021/12/16 12:15:55;;;;;;;;;;;;;;;18.42;48.34;103721.53;5044111;28;19929;-49
2021/12/16 12:18:37;;;;;;;;;;;;;;;18.44;48.29;103722.31;5045146;28;19975;-47
2021/12/16 12:21:15;;;;;;;;;;;;;;;18.45;48.39;103725.88;5044806;28;19913;-45
2021/12/16 12:23:41;;;;;;;;;;;;;;;18.46;48.52;103716.81;5044816;28;19920;-48
2021/12/16 12:26:06;;;;;;;;;;;;;;;18.45;48.49;103724.03;5044583;28;19913;-47
2021/12/16 12:28:31;;;;;;;;;;;;;;;18.46;48.28;103725.75;5060494;28;19913;-50
2021/12/16 12:30:56;;;;;;;;;;;;;;;18.46;48.38;103728.47;5043741;28;20610;-47
2021/12/16 12:33:22;;;;;;;;;;;;;;;18.46;48.37;103722.22;5059711;28;19919;-45
2021/12/16 12:35:47;;;;;;;;;;;;;;;18.46;48.28;103732.97;5044523;28;19918;-45
2021/12/16 12:38:12;;;;;;;;;;;;;;;18.46;48.30;103738.38;5044831;28;19919;-45
2021/12/16 12:40:38;;;;;;;;;;;;;;;18.46;48.30;103735.69;5044075;28;19913;-46
2021/12/16 12:43:04;;;;;;;;;;;;;;;18.47;48.35;103737.41;5044806;28;20261;-48
2021/12/16 12:45:31;;;;;;;;;;;;;;;18.46;48.29;103741.06;5044252;28;19913;-50
2021/12/16 12:47:57;;;;;;;;;;;;;;;18.46;48.45;103731.16;5044224;28;19976;-49
2021/12/16 12:50:24;;;;;;;;;;;;;;;18.48;48.44;103731.06;5044221;28;19913;-50
2021/12/16 12:52:51;;;;;;;;;;;;;;;18.48;48.27;103733.75;5044449;28;19937;-51
2021/12/16 12:55:22;;;;;;;;;;;;;;;18.49;48.33;103728.28;5044103;28;19988;-52
2021/12/16 12:57:48;;;;;;;;;;;;;;;18.48;48.29;103734.63;5044280;28;19919;-51
2021/12/16 13:00:26;;;;;;;;;;;;;;;18.49;48.37;103732.78;5043574;28;19952;-50
2021/12/16 13:02:56;;;;;;;;;;;;;;;18.48;48.41;103723.84;5043868;28;19920;-50
2021/12/16 13:05:21;;;;;;;;;;;;;;;18.49;48.39;103730.97;5042808;28;19913;-52
2021/12/16 13:07:48;;;;;;;;;;;;;;;18.51;48.49;103733.56;5044046;28;20010;-50
2021/12/16 13:10:18;;;;;;;;;;;;;;;18.51;48.46;103728.16;5042323;28;20452;-48
2021/12/16 13:12:56;;;;;;;;;;;;;;;18.52;48.53;103719.13;5043970;28;19913;-51
2021/12/16 13:15:43;;;;;;;;;;;;;;;18.53;48.54;103712.78;5043398;28;19923;-47
2021/12/16 13:23:32;;;;;;;;;;;;;;;18.54;48.38;103714.50;5043980;28;19924;-48
2021/12/16 13:28:47;;;;;;;;;;;;;;;18.55;48.29;103712.66;5043786;28;20000;-50
2021/12/16 13:31:34;;;;;;;;;;;;;;;18.55;48.52;103712.66;5042662;28;20431;-48
2021/12/16 13:34:01;;;;;;;;;;;;;;;18.56;48.37;103717.94;5043771;28;20454;-48
2021/12/16 13:36:46;;;;;;;;;;;;;;;18.57;48.16;103711.63;5043245;28;19996;-47
2021/12/16 13:39:12;;;;;;;;;;;;;;;18.57;48.31;103711.63;5043438;28;19956;-49
2021/12/16 13:41:53;;;;;;;;;;;;;;;18.58;48.27;103718.72;5043192;28;19920;-50
2021/12/16 13:44:18;;;;;;;;;;;;;;;18.58;48.28;103716.03;5042783;28;20012;-47
2021/12/16 13:46:59;;;;;;;;;;;;;;;18.59;48.50;103711.50;5042646;28;19913;-46
2021/12/16 14:02:55;;;;;;;;;;;;;;;18.61;48.59;103709.59;5043152;28;19928;-46
2021/12/16 14:05:28;;;;;;;;;;;;;;;18.62;48.33;103714.00;5041908;28;19971;-49
2021/12/16 14:08:00;;;;;;;;;;;;;;;18.62;48.49;103708.63;5043056;28;20023;-47
2021/12/16 14:10:33;;;;;;;;;;;;;;;18.62;48.28;103706.78;5057964;28;19914;-49
2021/12/16 14:16:12;;;;;;;;;;;;;;;18.62;48.53;103706.78;5042936;28;19921;-49
2021/12/16 14:25:06;;;;;;;;;;;;;;;18.62;48.42;103717.56;5029851;28;19920;-49
2021/12/16 14:38:09;;;;;;;;;;;;;;;18.63;48.41;103722.00;5042715;28;19914;-47
2021/12/16 14:41:05;;;;;;;;;;;;;;;18.63;48.33;103726.53;5048960;28;19917;-48
2021/12/16 14:46:11;;;;;;;;;;;;;;;18.63;48.28;103729.22;5041756;28;19920;-46
2021/12/16 14:48:36;;;;;;;;;;;;;;;18.64;48.60;103729.09;5042768;28;20020;-48
2021/12/16 14:51:01;;;;;;;;;;;;;;;18.64;48.44;103725.53;5042314;28;19913;-48
2021/12/16 14:53:26;;;;;;;;;;;;;;;18.64;48.45;103723.72;5042719;28;19913;-47
2021/12/16 14:55:54;;;;;;;;;;;;;;;18.64;48.73;103722.84;5044137;28;19932;-46
2021/12/16 14:58:20;;;;;;;;;;;;;;;18.64;48.28;103728.25;5046713;28;20484;-48
2021/12/16 15:00:49;;;;;;;;;;;;;;;18.63;48.55;103729.22;5045257;28;19921;-46
2021/12/16 15:03:16;;;;;;;;;;;;;;;18.63;48.46;103727.38;5046662;28;19920;-51
2021/12/16 15:05:43;;;;;;;;;;;;;;;18.64;48.41;103733.63;5046363;28;19913;-47
2021/12/16 15:08:18;;;;;;;;;;;;;;;18.64;48.52;103730.94;5046298;28;19936;-45
2021/12/16 15:10:43;;;;;;;;;;;;;;;18.63;48.51;103735.47;5045757;28;19928;-47
2021/12/16 15:13:16;;;;;;;;;;;;;;;18.64;48.49;103745.28;5046586;28;19976;-51
2021/12/16 15:15:51;;;;;;;;;;;;;;;18.63;48.71;103746.25;5044974;28;19952;-50
2021/12/16 15:34:04;;;;;;;;;;;;;;;18.64;48.68;103771.34;5044867;28;19955;-49
2021/12/16 15:35:47;;;;;;;;;;;;;;;18.64;48.74;103771.34;5038718;28;19913;-48
2021/12/16 15:40:16;;;;;;;;;;;;;;;18.65;48.72;103778.50;5045749;28;19983;-50
2021/12/16 15:42:49;;;;;;;;;;;;;;;18.65;48.65;103786.59;5045929;28;19940;-47